Time;durP1;ratioP1;P1;durP2;ratioP2;P2;SDS_P1;SDS_P2;PMS_P1;PMS_P2;Temp;Humidity;BMP_temperature;BMP_pressure;BME280_temperature;BME280_humidity;BME280_pressure;Samples;Min_cycle;Max_cycle;Signal;HPM_P1;HPM_P2
2021/05/13 00:00:19;;;;;;;32.80;18.63;;;;;;;9.63;89.58;95542.97;5009571;28;20069;-69
2021/05/13 00:02:46;;;;;;;29.40;17.52;;;;;;;9.59;89.21;95542.03;5011023;28;20049;-69
2021/05/13 00:05:13;;;;;;;30.50;18.98;;;;;;;9.55;89.49;95538.41;5006837;28;20096;-68
2021/05/13 00:07:39;;;;;;;33.40;18.40;;;;;;;9.53;89.41;95546.06;5011256;28;20092;-68
2021/05/13 00:10:08;;;;;;;36.22;19.15;;;;;;;9.52;89.77;95541.78;5010229;28;20050;-68
2021/05/13 00:12:39;;;;;;;32.65;17.85;;;;;;;9.55;89.97;95535.69;5010755;28;20042;-69
2021/05/13 00:15:09;;;;;;;33.22;19.63;;;;;;;9.55;89.75;95532.97;5010799;28;20104;-68
2021/05/13 00:17:35;;;;;;;33.50;19.15;;;;;;;9.54;89.77;95528.63;5010539;28;20103;-68
2021/05/13 00:20:01;;;;;;;34.30;18.05;;;;;;;9.52;89.87;95525.47;5011414;28;20050;-68
2021/05/13 00:22:27;;;;;;;31.02;18.58;;;;;;;9.52;89.72;95520.03;5010114;28;20060;-69
2021/05/13 00:24:53;;;;;;;34.75;17.85;;;;;;;9.52;89.82;95514.59;5011282;28;20519;-68
2021/05/13 00:27:20;;;;;;;31.13;18.75;;;;;;;9.56;89.83;95515.53;5009680;28;20054;-68
2021/05/13 00:29:46;;;;;;;29.80;19.23;;;;;;;9.55;89.91;95513.94;5010834;28;20038;-68
2021/05/13 00:32:12;;;;;;;33.42;19.08;;;;;;;9.50;89.48;95511.41;5009928;28;20137;-67
2021/05/13 00:34:38;;;;;;;33.33;18.70;;;;;;;9.46;89.35;95515.13;5010441;28;20660;-67
2021/05/13 00:37:04;;;;;;;29.25;18.13;;;;;;;9.49;89.99;95514.44;5009790;28;20141;-68
2021/05/13 00:39:30;;;;;;;30.60;18.85;;;;;;;9.52;89.74;95511.09;5010305;28;20128;-68
2021/05/13 00:41:56;;;;;;;31.52;17.60;;;;;;;9.49;89.59;95504.38;5010552;28;20509;-67
2021/05/13 00:44:23;;;;;;;33.38;18.77;;;;;;;9.49;89.68;95500.88;5009355;28;20165;-67
2021/05/13 00:46:49;;;;;;;34.53;18.25;;;;;;;9.46;89.65;95507.78;5010682;28;20038;-68
2021/05/13 00:49:17;;;;;;;32.03;17.98;;;;;;;9.44;89.50;95507.28;5008915;28;20083;-68
2021/05/13 00:51:44;;;;;;;35.60;19.08;;;;;;;9.45;89.69;95505.38;5010878;28;20470;-67
2021/05/13 00:54:11;;;;;;;31.90;18.15;;;;;;;9.41;89.70;95502.53;5009410;28;20050;-68
2021/05/13 00:56:37;;;;;;;33.10;17.50;;;;;;;9.41;89.83;95503.31;5010145;28;20046;-67
2021/05/13 00:59:06;;;;;;;30.90;17.73;;;;;;;9.44;89.88;95506.50;5009641;28;20057;-67
2021/05/13 01:01:48;;;;;;;36.63;19.27;;;;;;;9.43;89.61;95502.19;5010194;28;20460;-68
2021/05/13 01:04:15;;;;;;;33.50;18.27;;;;;;;9.43;89.69;95510.34;5010213;28;20057;-68
2021/05/13 01:06:41;;;;;;;34.15;17.33;;;;;;;9.40;89.33;95503.66;5009271;28;20046;-68
2021/05/13 01:09:08;;;;;;;26.38;15.88;;;;;;;9.41;89.54;95502.53;5010338;28;20038;-68
2021/05/13 01:11:36;;;;;;;30.45;17.38;;;;;;;9.42;89.14;95498.69;5009656;28;20448;-68
2021/05/13 01:14:10;;;;;;;32.53;17.45;;;;;;;9.42;89.15;95493.25;5010948;28;20537;-68
2021/05/13 01:16:46;;;;;;;29.25;17.15;;;;;;;9.39;89.18;95493.91;5013588;28;20056;-68
2021/05/13 01:19:15;;;;;;;32.22;18.17;;;;;;;9.38;89.37;95492.31;5013337;28;20050;-68
2021/05/13 01:21:42;;;;;;;29.67;16.90;;;;;;;9.45;89.42;95489.88;5013735;28;20045;-68
2021/05/13 01:24:08;;;;;;;29.48;17.23;;;;;;;9.44;88.92;95492.91;5012947;28;20072;-68
2021/05/13 01:26:34;;;;;;;29.45;16.33;;;;;;;9.45;88.72;95491.78;5014208;28;20051;-68
2021/05/13 01:29:01;;;;;;;30.90;17.10;;;;;;;9.46;88.67;95494.19;5013801;28;20123;-68
2021/05/13 01:31:27;;;;;;;28.20;16.48;;;;;;;9.46;88.59;95491.47;5013544;28;20069;-68
2021/05/13 01:33:53;;;;;;;28.75;15.52;;;;;;;9.47;88.76;95498.47;5012932;28;20045;-68
2021/05/13 01:36:19;;;;;;;27.75;15.70;;;;;;;9.51;88.68;95495.91;5013025;28;20053;-67
2021/05/13 01:38:46;;;;;;;25.35;16.00;;;;;;;9.54;88.28;95489.78;5013194;28;20053;-68
2021/05/13 01:41:12;;;;;;;29.27;16.52;;;;;;;9.48;87.89;95486.47;5013059;28;20049;-68
2021/05/13 01:43:38;;;;;;;24.30;15.65;;;;;;;9.47;88.11;95490.34;5013343;28;20052;-68
2021/05/13 01:46:04;;;;;;;29.73;15.85;;;;;;;9.47;88.07;95489.53;5012712;28;20046;-68
2021/05/13 01:48:31;;;;;;;26.73;15.50;;;;;;;9.40;87.87;95485.44;5013524;28;20112;-68
2021/05/13 01:50:57;;;;;;;26.35;14.60;;;;;;;9.40;88.41;95480.00;5012755;28;20053;-69
2021/05/13 01:53:24;;;;;;;25.98;15.15;;;;;;;9.38;88.35;95481.44;5013384;28;20045;-69
2021/05/13 01:55:50;;;;;;;24.35;15.55;;;;;;;9.44;88.63;95474.69;5012513;28;20039;-68
2021/05/13 01:58:17;;;;;;;30.35;15.45;;;;;;;9.42;88.09;95474.22;5013346;28;20054;-68
2021/05/13 02:00:45;;;;;;;24.85;15.52;;;;;;;9.44;88.10;95466.53;5012579;28;20050;-69
2021/05/13 02:03:11;;;;;;;31.48;18.48;;;;;;;9.41;87.91;95481.59;5012731;28;20659;-69
2021/05/13 02:05:37;;;;;;;27.35;15.50;;;;;;;9.46;88.48;95480.59;5012514;28;20050;-69
2021/05/13 02:08:04;;;;;;;25.60;15.07;;;;;;;9.45;88.07;95479.00;5012358;28;20049;-69
2021/05/13 02:10:30;;;;;;;27.85;16.20;;;;;;;9.43;87.88;95475.81;5013121;28;20100;-68
2021/05/13 02:12:57;;;;;;;30.70;15.90;;;;;;;9.43;87.78;95472.31;5012615;28;20046;-69
2021/05/13 02:15:23;;;;;;;29.50;15.77;;;;;;;9.39;87.81;95472.16;5012526;28;20401;-69
2021/05/13 02:17:50;;;;;;;24.23;15.48;;;;;;;9.41;88.37;95464.50;5011851;28;20525;-68
2021/05/13 02:20:18;;;;;;;25.85;15.20;;;;;;;9.40;88.16;95462.91;5012951;28;20054;-68
2021/05/13 02:22:44;;;;;;;24.77;16.15;;;;;;;9.38;87.97;95457.00;5012133;28;20096;-68
2021/05/13 02:25:11;;;;;;;27.65;15.77;;;;;;;9.39;87.92;95455.84;5012647;28;20101;-68
2021/05/13 02:27:38;;;;;;;27.65;15.98;;;;;;;9.37;88.27;95458.91;5011605;28;20034;-68
2021/05/13 02:30:07;;;;;;;25.33;16.00;;;;;;;9.34;88.04;95458.78;5012317;28;20505;-69
2021/05/13 02:32:34;;;;;;;29.55;16.10;;;;;;;9.37;88.42;95449.97;5012772;28;20042;-69
2021/05/13 02:35:00;;;;;;;25.88;16.60;;;;;;;9.38;88.32;95452.34;5012045;28;20493;-68
2021/05/13 02:37:26;;;;;;;26.80;15.55;;;;;;;9.36;88.15;95446.47;5011989;28;20037;-68
2021/05/13 02:39:52;;;;;;;27.63;16.75;;;;;;;9.35;88.30;95449.53;5011980;28;20072;-68
2021/05/13 02:42:18;;;;;;;30.63;16.10;;;;;;;9.31;88.14;95441.22;5012399;28;20501;-69
2021/05/13 02:44:44;;;;;;;29.67;17.38;;;;;;;9.19;88.22;95441.16;5011962;28;20559;-69
2021/05/13 02:47:11;;;;;;;27.90;17.15;;;;;;;9.11;88.50;95440.09;5011968;28;20058;-69
2021/05/13 02:49:37;;;;;;;29.85;17.90;;;;;;;9.14;88.95;95438.66;5011786;28;20052;-69
2021/05/13 02:52:04;;;;;;;30.25;18.33;;;;;;;9.18;88.93;95438.75;5012038;28;20054;-69
2021/05/13 02:54:30;;;;;;;30.88;17.67;;;;;;;9.21;89.03;95440.84;5011914;28;20167;-69
2021/05/13 02:56:56;;;;;;;34.15;18.63;;;;;;;9.17;88.78;95440.69;5011900;28;20441;-69
2021/05/13 02:59:29;;;;;;;30.42;18.20;;;;;;;9.15;88.96;95441.03;5011742;28;20049;-68
2021/05/13 03:01:55;;;;;;;28.33;17.05;;;;;;;9.13;89.22;95435.16;5011666;28;20401;-69
2021/05/13 03:04:21;;;;;;;31.02;17.50;;;;;;;9.11;89.28;95437.38;5011741;28;20073;-69
2021/05/13 03:06:48;;;;;;;31.55;18.45;;;;;;;9.13;89.27;95437.84;5010955;28;20468;-68
2021/05/13 03:09:15;;;;;;;32.42;18.50;;;;;;;9.19;89.17;95438.47;5012048;28;20054;-69
2021/05/13 03:11:41;;;;;;;30.23;18.08;;;;;;;9.18;89.21;95433.34;5011232;28;20564;-69
2021/05/13 03:14:09;;;;;;;29.85;17.73;;;;;;;9.16;89.16;95433.66;5011464;28;20100;-68
2021/05/13 03:16:35;;;;;;;29.00;18.08;;;;;;;9.10;88.83;95433.06;5011416;28;20137;-68
2021/05/13 03:19:01;;;;;;;30.05;19.02;;;;;;;9.12;89.05;95430.81;5011828;28;20069;-68
2021/05/13 03:21:31;;;;;;;32.00;18.85;;;;;;;9.15;89.66;95435.59;5011295;28;20066;-68
2021/05/13 03:24:01;;;;;;;31.75;19.30;;;;;;;9.15;89.36;95429.38;5011278;28;20425;-68
2021/05/13 03:26:36;;;;;;;34.55;18.95;;;;;;;9.19;89.76;95427.59;5011510;28;20049;-68
2021/05/13 03:29:03;;;;;;;35.10;19.15;;;;;;;9.22;89.37;95426.91;5010510;28;20088;-68
2021/05/13 03:31:29;;;;;;;36.42;20.45;;;;;;;9.22;89.52;95428.84;5011812;28;20413;-69
2021/05/13 03:33:55;;;;;;;32.35;20.02;;;;;;;9.23;89.73;95419.56;5011115;28;20064;-68
2021/05/13 03:36:21;;;;;;;36.90;20.17;;;;;;;9.23;89.57;95419.56;5010892;28;20670;-68
2021/05/13 03:38:48;;;;;;;41.83;21.88;;;;;;;9.23;89.59;95425.00;5010229;28;20129;-68
2021/05/13 03:41:14;;;;;;;41.00;21.80;;;;;;;9.31;90.06;95422.22;5010980;28;20042;-68
2021/05/13 03:43:40;;;;;;;40.75;22.40;;;;;;;9.35;89.80;95422.34;5011142;28;20555;-68
2021/05/13 03:46:06;;;;;;;37.10;21.83;;;;;;;9.36;89.58;95423.94;5010543;28;20157;-68
2021/05/13 03:48:32;;;;;;;36.35;20.27;;;;;;;9.38;89.31;95421.66;5011435;28;20049;-67
2021/05/13 03:50:58;;;;;;;39.92;22.45;;;;;;;9.38;89.59;95427.09;5010510;28;20126;-67
2021/05/13 03:53:24;;;;;;;39.15;22.75;;;;;;;9.42;89.24;95430.75;5011072;28;20105;-68
2021/05/13 03:55:52;;;;;;;38.60;22.80;;;;;;;9.43;89.54;95424.19;5010168;28;20472;-67
2021/05/13 03:58:19;;;;;;;43.97;23.35;;;;;;;9.49;89.47;95432.91;5011099;28;20504;-68
2021/05/13 04:00:49;;;;;;;41.45;23.70;;;;;;;9.50;89.15;95424.47;5010258;28;20041;-68
2021/05/13 04:03:15;;;;;;;42.70;24.10;;;;;;;9.54;89.37;95421.84;5010835;28;20042;-68
2021/05/13 04:05:41;;;;;;;39.50;23.27;;;;;;;9.57;89.43;95424.69;5010097;28;20042;-68
2021/05/13 04:08:08;;;;;;;45.20;24.05;;;;;;;9.58;89.27;95425.50;5010378;28;20052;-67
2021/05/13 04:10:34;;;;;;;39.28;22.35;;;;;;;9.57;88.92;95430.13;5011125;28;20433;-67
2021/05/13 04:13:03;;;;;;;37.80;21.80;;;;;;;9.60;89.05;95429.44;5010499;28;20038;-68
2021/05/13 04:15:29;;;;;;;41.33;23.00;;;;;;;9.54;88.73;95428.06;5010929;28;20109;-68
2021/05/13 04:17:55;;;;;;;41.15;22.73;;;;;;;9.55;89.26;95428.88;5010232;28;20050;-68
2021/05/13 04:20:21;;;;;;;38.67;23.25;;;;;;;9.58;88.98;95431.72;5010928;28;20610;-68
2021/05/13 04:22:47;;;;;;;41.65;24.20;;;;;;;9.60;89.01;95429.44;5010187;28;20115;-68
2021/05/13 04:25:13;;;;;;;44.17;23.75;;;;;;;9.61;88.83;95431.06;5010558;28;20481;-68
2021/05/13 04:27:39;;;;;;;42.65;24.15;;;;;;;9.59;88.84;95427.88;5010308;28;20574;-68
2021/05/13 04:30:07;;;;;;;41.20;23.27;;;;;;;9.62;88.76;95431.84;5010309;28;20049;-68
2021/05/13 04:32:33;;;;;;;44.17;23.38;;;;;;;9.65;88.70;95434.69;5010598;28;20053;-68
2021/05/13 04:34:59;;;;;;;42.83;23.92;;;;;;;9.71;88.69;95434.47;5010541;28;20116;-67
2021/05/13 04:37:25;;;;;;;44.88;24.05;;;;;;;9.72;88.59;95431.44;5010154;28;20038;-68
2021/05/13 04:39:51;;;;;;;41.03;23.35;;;;;;;9.74;88.54;95422.94;5010347;28;20077;-68
2021/05/13 04:42:17;;;;;;;41.55;24.23;;;;;;;9.74;88.39;95425.66;5010512;28;20042;-68
2021/05/13 04:44:43;;;;;;;41.10;24.27;;;;;;;9.76;88.40;95426.13;5009896;28;20049;-68
2021/05/13 04:47:25;;;;;;;41.92;23.13;;;;;;;9.78;88.06;95430.09;5010560;28;20069;-68
2021/05/13 04:49:52;;;;;;;42.47;23.50;;;;;;;9.77;88.17;95422.28;5011874;28;20080;-68
2021/05/13 04:52:19;;;;;;;44.78;23.42;;;;;;;9.77;88.11;95422.28;5013937;28;20050;-68
2021/05/13 04:54:49;;;;;;;40.00;23.25;;;;;;;9.74;87.95;95418.28;5014318;28;20080;-68
2021/05/13 04:57:15;;;;;;;40.25;23.58;;;;;;;9.79;88.19;95425.44;5013414;28;20068;-68
2021/05/13 04:59:41;;;;;;;42.05;23.30;;;;;;;9.77;87.89;95423.06;5014576;28;20555;-68
2021/05/13 05:02:07;;;;;;;47.33;23.55;;;;;;;9.74;87.84;95428.38;5013314;28;20050;-68
2021/05/13 05:04:34;;;;;;;44.15;23.50;;;;;;;9.76;88.38;95423.41;5014946;28;20057;-68
2021/05/13 05:07:00;;;;;;;47.78;25.15;;;;;;;9.75;88.46;95424.53;5013282;28;20382;-68
2021/05/13 05:09:26;;;;;;;43.42;24.13;;;;;;;9.78;88.81;95423.88;5014360;28;20052;-68
2021/05/13 05:11:52;;;;;;;43.63;25.15;;;;;;;9.81;88.10;95418.53;5007685;28;20049;-72
2021/05/13 05:14:18;;;;;;;45.38;25.20;;;;;;;9.81;88.28;95412.31;5011619;28;20046;-72
2021/05/13 05:16:44;;;;;;;47.47;24.80;;;;;;;9.80;88.10;95416.16;5011247;28;20054;-72
2021/05/13 05:19:10;;;;;;;45.88;26.00;;;;;;;9.79;88.02;95414.56;5010899;28;20084;-73
2021/05/13 05:21:37;;;;;;;40.70;24.55;;;;;;;9.76;87.70;95423.41;5010970;28;20056;-72
2021/05/13 05:24:05;;;;;;;43.22;24.92;;;;;;;9.74;87.71;95417.50;5010606;28;20452;-72
2021/05/13 05:26:31;;;;;;;41.42;24.95;;;;;;;9.78;88.30;95421.16;5011379;28;20050;-73
2021/05/13 05:28:57;;;;;;;44.92;24.90;;;;;;;9.81;87.88;95417.75;5010745;28;20054;-72
2021/05/13 05:31:23;;;;;;;45.25;25.65;;;;;;;9.82;87.75;95409.28;5010989;28;20119;-72
2021/05/13 05:33:49;;;;;;;42.22;24.58;;;;;;;9.87;87.93;95416.44;5010008;28;20073;-72
2021/05/13 05:36:15;;;;;;;45.08;25.60;;;;;;;9.86;88.15;95425.69;5008733;28;20497;-72
2021/05/13 05:38:42;;;;;;;43.80;24.95;;;;;;;9.92;88.40;95408.06;5010646;28;20061;-72
2021/05/13 05:41:08;;;;;;;40.95;23.95;;;;;;;9.96;88.05;95408.94;5011199;28;20056;-72
2021/05/13 05:43:34;;;;;;;47.97;26.30;;;;;;;9.95;87.97;95407.38;5010636;28;20132;-73
2021/05/13 05:46:00;;;;;;;42.72;24.30;;;;;;;9.97;88.23;95405.13;5010796;28;20058;-72
2021/05/13 05:48:26;;;;;;;45.85;25.15;;;;;;;10.00;87.77;95415.31;5010394;28;20185;-73
2021/05/13 05:50:52;;;;;;;44.17;24.50;;;;;;;9.99;87.94;95402.84;5010751;28;20125;-72
2021/05/13 05:53:17;;;;;;;41.97;23.65;;;;;;;9.99;87.90;95407.50;5010378;28;20050;-72
2021/05/13 05:55:44;;;;;;;44.58;24.48;;;;;;;10.00;88.03;95399.00;5010089;28;20124;-72
2021/05/13 05:58:10;;;;;;;41.10;23.70;;;;;;;10.00;88.21;95401.72;5010465;28;20409;-74
2021/05/13 06:00:37;;;;;;;44.38;23.35;;;;;;;10.00;88.52;95401.72;5008781;28;20497;-73
2021/05/13 06:03:03;;;;;;;43.80;23.73;;;;;;;10.04;88.21;95397.19;5010687;28;20584;-72
2021/05/13 06:05:30;;;;;;;43.15;23.77;;;;;;;10.06;88.29;95402.28;5012490;28;20104;-72
2021/05/13 06:07:57;;;;;;;40.90;23.13;;;;;;;10.11;88.43;95400.13;5013109;28;20038;-73
2021/05/13 06:10:23;;;;;;;39.90;23.33;;;;;;;10.11;88.16;95402.84;5012443;28;20050;-72
2021/05/13 06:12:52;;;;;;;39.45;23.08;;;;;;;10.14;87.88;95402.19;5012986;28;20046;-72
2021/05/13 06:15:21;;;;;;;42.00;23.38;;;;;;;10.18;87.81;95400.41;5012567;28;20597;-72
2021/05/13 06:17:47;;;;;;;41.50;23.40;;;;;;;10.18;87.41;95405.03;5012271;28;20169;-72
2021/05/13 06:20:18;;;;;;;43.42;22.70;;;;;;;10.18;87.29;95411.28;5012952;28;20050;-72
2021/05/13 06:22:45;;;;;;;37.10;22.15;;;;;;;10.11;87.51;95402.84;5011957;28;20555;-73
2021/05/13 06:25:12;;;;;;;40.42;22.90;;;;;;;10.01;87.99;95405.22;5005753;28;20057;-72
2021/05/13 06:27:38;;;;;;;39.25;23.13;;;;;;;10.00;88.21;95404.44;5009761;28;20046;-72
2021/05/13 06:30:13;;;;;;;38.47;21.65;;;;;;;10.00;88.42;95404.44;4999256;28;20042;-72
2021/05/13 06:32:40;;;;;;;36.22;21.55;;;;;;;10.08;87.93;95405.47;5023203;28;20128;-72
2021/05/13 06:35:07;;;;;;;40.42;22.85;;;;;;;10.00;87.87;95409.88;5008122;28;20552;-72
2021/05/13 06:37:33;;;;;;;40.13;23.35;;;;;;;10.02;88.16;95406.81;5008959;28;20115;-73
2021/05/13 06:39:59;;;;;;;43.83;23.30;;;;;;;10.12;88.36;95417.25;5011074;28;20057;-73
2021/05/13 06:42:26;;;;;;;38.78;21.35;;;;;;;10.20;88.14;95411.72;5012870;28;20038;-73
2021/05/13 06:44:52;;;;;;;39.53;21.48;;;;;;;10.22;88.20;95411.38;5011066;28;20042;-73
2021/05/13 06:47:19;;;;;;;36.42;21.40;;;;;;;10.28;88.11;95412.75;5012028;28;20070;-73
2021/05/13 06:49:45;;;;;;;32.03;19.63;;;;;;;10.30;87.50;95412.44;5011961;28;20456;-73
2021/05/13 06:52:11;;;;;;;34.72;21.02;;;;;;;10.29;87.38;95411.66;5011637;28;20046;-73
2021/05/13 06:54:37;;;;;;;34.33;21.23;;;;;;;10.33;87.24;95409.03;5011793;28;20096;-73
2021/05/13 06:57:04;;;;;;;33.22;20.55;;;;;;;10.34;87.39;95410.66;5011664;28;20050;-73
2021/05/13 06:59:30;;;;;;;31.70;20.77;;;;;;;10.38;87.61;95409.59;5012112;28;20054;-73
2021/05/13 07:01:56;;;;;;;32.72;20.80;;;;;;;10.43;87.30;95412.09;5011801;28;20052;-73
2021/05/13 07:04:24;;;;;;;32.78;19.90;;;;;;;10.48;86.92;95416.53;5011889;28;20053;-73
2021/05/13 07:06:50;;;;;;;38.22;21.30;;;;;;;10.50;87.39;95408.03;5011003;28;20069;-73
2021/05/13 07:09:16;;;;;;;33.47;19.25;;;;;;;10.51;87.26;95417.78;5012171;28;20096;-73
2021/05/13 07:11:43;;;;;;;32.88;19.42;;;;;;;10.49;87.09;95412.66;5011112;28;20054;-73
2021/05/13 07:14:09;;;;;;;32.45;18.77;;;;;;;10.48;87.34;95418.47;5011815;28;20053;-73
2021/05/13 07:16:35;;;;;;;36.65;20.05;;;;;;;10.46;87.55;95421.53;5011564;28;20104;-73
2021/05/13 07:19:02;;;;;;;29.70;19.30;;;;;;;10.56;87.37;95420.28;5011321;28;20424;-73
2021/05/13 07:21:30;;;;;;;34.92;19.60;;;;;;;10.61;87.42;95420.84;5011396;28;20038;-73
2021/05/13 07:23:58;;;;;;;31.13;18.35;;;;;;;10.60;86.69;95419.28;5011592;28;20042;-73
2021/05/13 07:26:24;;;;;;;31.30;17.27;;;;;;;10.63;86.52;95431.41;5011538;28;20073;-73
2021/05/13 07:28:50;;;;;;;28.00;17.55;;;;;;;10.66;85.75;95415.19;5011119;28;20048;-73
2021/05/13 07:31:16;;;;;;;29.05;17.42;;;;;;;10.62;86.27;95413.47;5011465;28;20056;-73
2021/05/13 07:33:43;;;;;;;26.58;15.45;;;;;;;10.70;86.79;95412.56;5010917;28;20037;-73
2021/05/13 07:36:09;;;;;;;24.33;15.15;;;;;;;10.74;85.20;95409.94;5011271;28;20046;-73
2021/05/13 07:38:37;;;;;;;27.40;16.02;;;;;;;10.74;85.28;95408.00;5011974;28;20500;-73
2021/05/13 07:41:05;;;;;;;23.30;14.85;;;;;;;10.69;84.67;95409.03;5011461;28;20065;-73
2021/05/13 07:43:32;;;;;;;21.35;13.27;;;;;;;10.66;85.43;95412.47;5011276;28;20056;-73
2021/05/13 07:45:58;;;;;;;25.52;15.70;;;;;;;10.64;85.52;95406.53;5011463;28;20041;-73
2021/05/13 07:48:26;;;;;;;22.75;14.07;;;;;;;10.64;85.40;95411.97;5010789;28;20046;-74
2021/05/13 07:50:52;;;;;;;25.73;15.18;;;;;;;10.65;85.23;95416.31;5010806;28;20044;-73
2021/05/13 07:53:18;;;;;;;24.95;14.27;;;;;;;10.60;85.58;95408.38;5011374;28;20041;-73
2021/05/13 07:55:45;;;;;;;22.83;14.65;;;;;;;10.50;85.50;95410.75;5010715;28;20046;-73
2021/05/13 07:58:11;;;;;;;23.30;14.25;;;;;;;10.54;86.01;95415.16;5011438;28;20049;-73
2021/05/13 08:00:37;;;;;;;23.35;14.13;;;;;;;10.61;85.81;95406.44;5010833;28;20445;-74
2021/05/13 08:03:03;;;;;;;22.40;14.60;;;;;;;10.70;86.51;95415.28;5011057;28;20133;-73
2021/05/13 08:05:29;;;;;;;22.05;13.63;;;;;;;10.67;86.05;95405.88;5010413;28;20497;-73
2021/05/13 08:07:55;;;;;;;21.90;13.02;;;;;;;10.64;85.66;95411.97;5011258;28;20065;-73
2021/05/13 08:10:21;;;;;;;19.17;12.35;;;;;;;10.57;85.16;95410.97;5010715;28;20054;-73
2021/05/13 08:12:48;;;;;;;20.42;12.32;;;;;;;10.52;85.00;95411.22;5011043;28;20136;-73
2021/05/13 08:15:16;;;;;;;20.08;13.32;;;;;;;10.55;85.40;95419.50;5011008;28;20069;-73
2021/05/13 08:17:43;;;;;;;18.50;11.63;;;;;;;10.59;85.07;95414.94;5011390;28;20038;-74
2021/05/13 08:20:12;;;;;;;19.45;12.30;;;;;;;10.57;84.19;95405.53;5011135;28;20057;-73
2021/05/13 08:22:38;;;;;;;17.92;11.05;;;;;;;10.53;85.14;95410.06;5009688;28;20709;-73
2021/05/13 08:25:06;;;;;;;19.60;11.43;;;;;;;10.55;85.22;95411.34;5013409;28;20041;-73
2021/05/13 08:27:32;;;;;;;17.67;10.82;;;;;;;10.59;85.09;95404.03;5014701;28;20046;-73
2021/05/13 08:30:00;;;;;;;18.50;10.82;;;;;;;10.56;85.20;95399.31;5015175;28;20046;-73
2021/05/13 08:32:27;;;;;;;21.90;10.95;;;;;;;10.51;85.03;95404.97;5014203;28;20042;-73
2021/05/13 08:34:53;;;;;;;18.85;12.23;;;;;;;10.54;85.46;95401.56;5014826;28;20042;-74
2021/05/13 08:37:19;;;;;;;18.88;11.63;;;;;;;10.60;86.02;95394.78;5014058;28;20045;-73
2021/05/13 08:39:45;;;;;;;19.38;12.48;;;;;;;10.64;85.99;95395.66;5014605;28;20056;-73
2021/05/13 08:42:12;;;;;;;19.92;11.75;;;;;;;10.64;85.65;95398.38;5014381;28;20409;-73
2021/05/13 08:44:38;;;;;;;20.83;12.07;;;;;;;10.66;85.81;95398.84;5014053;28;20540;-73
2021/05/13 08:47:07;;;;;;;21.02;10.68;;;;;;;10.72;85.95;95402.13;5014560;28;20046;-73
2021/05/13 08:49:33;;;;;;;14.30;9.35;;;;;;;10.70;85.06;95401.66;5013937;28;20056;-73
2021/05/13 08:51:59;;;;;;;16.20;9.10;;;;;;;10.73;84.61;95406.44;5014927;28;20049;-73
2021/05/13 08:54:28;;;;;;;15.80;9.90;;;;;;;10.84;85.41;95407.56;5013666;28;20115;-73
2021/05/13 08:56:54;;;;;;;13.65;9.20;;;;;;;10.91;85.01;95404.25;5014445;28;20124;-73
2021/05/13 08:59:20;;;;;;;14.65;10.20;;;;;;;10.90;85.00;95402.66;5014012;28;20068;-73
2021/05/13 09:01:58;;;;;;;14.20;9.25;;;;;;;11.04;85.20;95397.66;5014156;28;20041;-73
2021/05/13 09:04:35;;;;;;;13.38;8.25;;;;;;;11.04;84.44;95408.53;5014119;28;20104;-73
2021/05/13 09:07:09;;;;;;;13.05;9.00;;;;;;;11.08;84.37;95401.28;5013200;28;20053;-72
2021/05/13 09:09:35;;;;;;;12.57;9.20;;;;;;;11.09;84.34;95399.34;5014640;28;20038;-72
2021/05/13 09:12:02;;;;;;;13.40;8.23;;;;;;;11.10;84.14;95396.28;5013128;28;20054;-73
2021/05/13 09:14:29;;;;;;;17.08;9.35;;;;;;;11.21;83.63;95388.41;5014215;28;20050;-72
2021/05/13 09:16:56;;;;;;;11.18;8.00;;;;;;;11.25;82.81;95392.03;5013996;28;20041;-72
2021/05/13 09:19:25;;;;;;;13.25;8.85;;;;;;;11.35;82.84;95396.22;5013343;28;20049;-72
2021/05/13 09:21:59;;;;;;;14.85;8.15;;;;;;;11.42;82.54;95397.19;5014111;28;20129;-73
2021/05/13 09:24:42;;;;;;;12.38;8.82;;;;;;;11.46;82.22;95391.84;5012845;28;20118;-72
2021/05/13 09:27:19;;;;;;;16.30;8.02;;;;;;;11.53;82.83;95392.03;5013866;28;20104;-73
2021/05/13 09:29:46;;;;;;;11.13;7.05;;;;;;;11.43;79.09;95387.06;5013324;28;20041;-72
2021/05/13 09:32:19;;;;;;;10.63;7.07;;;;;;;11.43;79.15;95398.81;5013638;28;20046;-72
2021/05/13 09:34:47;;;;;;;13.93;8.15;;;;;;;11.58;80.95;95394.50;5013444;28;20492;-73
2021/05/13 09:37:13;;;;;;;11.60;7.75;;;;;;;11.67;80.96;95392.44;5011586;28;20621;-72
2021/05/13 09:39:46;;;;;;;10.80;7.30;;;;;;;11.74;78.51;95398.09;5013504;28;20046;-73
2021/05/13 09:42:15;;;;;;;10.30;7.15;;;;;;;11.80;78.16;95390.47;5012723;28;20048;-73
2021/05/13 09:44:41;;;;;;;9.90;7.60;;;;;;;11.88;78.91;95391.47;5013804;28;20049;-73
2021/05/13 09:47:16;;;;;;;9.35;7.00;;;;;;;11.80;77.28;95384.19;5012219;28;20412;-73
2021/05/13 09:50:02;;;;;;;10.05;6.50;;;;;;;11.87;77.29;95378.97;5013793;28;20130;-72
2021/05/13 09:52:53;;;;;;;16.80;11.52;;;;;;;11.97;77.12;95389.38;5012836;28;20046;-72
2021/05/13 09:55:22;;;;;;;11.73;6.65;;;;;;;12.02;76.22;95375.47;5011969;28;20045;-73
2021/05/13 09:57:54;;;;;;;9.27;6.25;;;;;;;12.04;75.65;95378.63;5013319;28;20409;-72
2021/05/13 10:00:33;;;;;;;11.20;6.95;;;;;;;12.04;76.78;95378.63;5011986;28;20045;-72
2021/05/13 10:02:59;;;;;;;10.00;6.40;;;;;;;12.12;77.22;95372.22;5013492;28;20468;-72
2021/05/13 10:05:26;;;;;;;9.95;6.50;;;;;;;12.20;76.47;95376.69;5012138;28;20559;-72
2021/05/13 10:07:53;;;;;;;10.00;6.65;;;;;;;12.28;76.32;95373.00;5013252;28;20042;-73
2021/05/13 10:10:19;;;;;;;11.50;6.85;;;;;;;12.26;75.94;95379.94;5012145;28;20517;-72
2021/05/13 10:12:47;;;;;;;11.50;7.57;;;;;;;12.40;76.32;95369.38;5012577;28;20050;-72
2021/05/13 10:15:15;;;;;;;14.93;7.28;;;;;;;12.39;75.06;95372.47;5012559;28;20050;-74
2021/05/13 10:17:43;;;;;;;10.85;7.55;;;;;;;12.55;76.11;95365.06;5012149;28;20046;-73
2021/05/13 10:20:11;;;;;;;11.05;7.25;;;;;;;12.59;75.43;95365.16;5012418;28;20042;-72
2021/05/13 10:22:38;;;;;;;9.75;6.30;;;;;;;12.62;74.68;95359.75;5012066;28;20049;-72
2021/05/13 10:25:22;;;;;;;11.18;6.85;;;;;;;12.67;75.23;95362.22;5012551;28;20081;-73
2021/05/13 10:27:50;;;;;;;10.35;6.45;;;;;;;12.74;75.18;95367.06;5012207;28;20134;-72
2021/05/13 10:30:20;;;;;;;8.38;5.70;;;;;;;12.75;73.55;95363.97;5011538;28;20053;-76
2021/05/13 10:33:06;;;;;;;9.20;5.95;;;;;;;12.72;74.40;95364.66;5012348;28;20070;-72
2021/05/13 10:35:32;;;;;;;10.90;6.63;;;;;;;12.77;73.47;95358.16;5011436;28;20053;-72
2021/05/13 10:38:02;;;;;;;10.40;6.32;;;;;;;12.69;72.85;95359.94;5012660;28;20042;-74
2021/05/13 10:40:41;;;;;;;11.75;5.90;;;;;;;12.68;75.04;95358.31;5011745;28;20064;-72
2021/05/13 10:43:08;;;;;;;28.33;14.57;;;;;;;12.76;75.60;95351.88;5012474;28;20045;-72
2021/05/13 10:45:39;;;;;;;13.05;7.78;;;;;;;12.86;74.34;95353.28;5011999;28;20046;-72
2021/05/13 10:48:18;;;;;;;13.93;8.35;;;;;;;12.95;73.89;95356.63;5011720;28;20454;-72
2021/05/13 10:50:46;;;;;;;10.60;6.45;;;;;;;13.02;73.77;95347.78;5012534;28;20662;-72
2021/05/13 10:53:52;;;;;;;18.10;9.32;;;;;;;13.09;74.16;95349.84;5011537;28;20054;-72
2021/05/13 10:56:23;;;;;;;9.43;6.50;;;;;;;13.12;72.44;95349.94;5012221;28;20057;-71
2021/05/13 10:59:02;;;;;;;8.85;6.13;;;;;;;13.03;70.82;95347.41;5011832;28;20132;-72
2021/05/13 11:01:39;;;;;;;11.50;7.13;;;;;;;13.06;70.75;95335.78;5012154;28;20050;-71
2021/05/13 11:04:39;;;;;;;10.63;6.07;;;;;;;13.11;71.27;95340.16;5011841;28;20061;-72
2021/05/13 11:07:06;;;;;;;8.25;5.95;;;;;;;12.96;70.58;95343.75;5010679;28;20115;-72
2021/05/13 11:10:00;;;;;;;12.32;8.27;;;;;;;12.80;72.42;95349.25;5012556;28;20088;-72
2021/05/13 11:12:27;;;;;;;;;;;;;;;12.53;75.08;95346.31;4998084;28;20057;-73
2021/05/13 11:15:03;;;;;;;13.13;8.90;;;;;;;12.35;75.94;95344.28;5011861;28;20368;-72
2021/05/13 11:18:04;;;;;;;14.15;9.88;;;;;;;12.19;77.70;95336.91;5011532;28;20049;-72
2021/05/13 11:20:31;;;;;;;14.70;9.18;;;;;;;12.17;77.35;95336.47;5011068;28;20061;-72
2021/05/13 11:22:59;;;;;;;14.05;9.77;;;;;;;12.19;78.11;95338.84;5012129;28;20050;-71
2021/05/13 11:25:26;;;;;;;16.55;10.20;;;;;;;12.22;78.50;95336.22;5010579;28;20042;-72
2021/05/13 11:27:53;;;;;;;28.95;16.42;;;;;;;12.27;78.23;95333.22;5011543;28;20053;-71